MDT,Max TemperatureF,Mean TemperatureF,Min TemperatureF,Max Dew PointF,MeanDew PointF,Min DewpointF,Max Humidity, Mean Humidity, Min Humidity, Max Sea Level PressureIn, Mean Sea Level PressureIn, Min Sea Level PressureIn, Max VisibilityMiles, Mean VisibilityMiles, Min VisibilityMiles, Max Wind SpeedMPH, Mean Wind SpeedMPH, Max Gust SpeedMPH,PrecipitationIn, CloudCover, Events, WindDirDegrees
2013-9-1,88,67,45,44,40,38,71,44,17,30.09,30.01,29.94,10,10,10,23,7,28,0.00,0,,149
2013-9-2,91,77,62,59,47,39,66,42,17,29.95,29.90,29.82,10,10,10,32,13,41,0.01,1,Rain,165
2013-9-3,92,75,58,60,55,51,93,60,27,29.96,29.89,29.83,10,10,10,15,5,18,0.00,1,,344
2013-9-4,96,79,61,60,55,46,78,49,19,30.03,29.97,29.91,10,10,10,22,4,25,0.00,1,,96
2013-9-5,96,77,58,59,54,48,90,55,20,30.01,29.93,29.83,10,10,10,17,8,23,0.00,0,,157
2013-9-6,95,80,64,61,54,43,76,48,19,30.11,29.95,29.83,10,8,0,54,8,81,0.57,1,Rain-Thunderstorm,357
2013-9-7,91,75,59,63,59,52,90,59,27,29.98,29.91,29.85,10,10,10,17,5,22,0.00,0,,322
2013-9-8,80,70,60,64,60,57,97,75,52,30.05,29.91,29.76,10,9,1,26,5,32,0.29,5,Rain-Thunderstorm,353
2013-9-9,73,64,54,59,54,48,100,74,47,29.99,29.90,29.78,10,10,10,20,5,23,0.00,3,,326
2013-9-10,76,63,50,52,48,43,86,59,31,30.10,30.06,29.99,10,10,10,9,3,14,0.00,0,,240
2013-9-11,81,66,50,53,48,44,86,58,30,30.21,30.16,30.09,10,10,10,12,2,17,0.00,0,,79
2013-9-12,79,64,48,55,49,45,93,62,30,30.26,30.19,30.09,10,10,10,18,7,25,0.00,1,,167
2013-9-13,71,65,59,59,56,48,90,73,56,30.05,29.92,29.77,10,10,6,30,18,37,T,6,,157
2013-9-14,73,64,55,59,56,53,97,73,49,30.11,29.91,29.76,10,10,5,18,9,24,0.00,7,,327
2013-9-15,70,62,54,58,52,46,93,72,51,30.27,30.15,30.02,10,10,10,29,12,35,0.00,4,,100
2013-9-16,82,67,51,53,50,46,89,60,30,30.12,29.94,29.77,10,10,10,31,17,38,0.00,2,,163
2013-9-17,88,70,51,54,48,39,89,54,18,29.79,29.69,29.58,10,10,10,23,9,32,0.01,0,,214
2013-9-18,78,62,45,55,48,41,100,66,32,29.88,29.69,29.58,10,9,1,40,13,49,0.18,1,Rain-Thunderstorm,276
2013-9-19,60,49,38,41,38,35,96,68,40,30.17,30.09,29.89,10,10,10,25,11,39,0.00,0,,295
2013-9-20,76,58,39,38,32,21,85,49,13,30.16,30.00,29.82,10,10,10,17,8,22,0.00,0,,177
2013-9-21,87,67,46,31,27,20,50,30,10,29.80,29.66,29.51,10,10,10,22,10,33,0.00,0,,197
2013-9-22,82,68,53,44,36,22,61,40,18,29.50,29.46,29.42,10,10,10,26,12,32,0.00,1,,234
2013-9-23,67,54,41,50,43,34,93,62,31,29.94,29.73,29.45,10,10,6,26,12,35,0.17,4,Rain,318
2013-9-24,77,59,40,39,34,25,86,51,15,29.97,29.82,29.60,10,10,10,22,12,28,0.00,0,,175
2013-9-25,62,55,47,47,43,36,93,67,40,29.70,29.59,29.49,10,10,9,21,10,25,0.06,3,Rain-Thunderstorm,355
2013-9-26,55,44,32,45,41,35,100,77,54,29.96,29.81,29.62,10,10,5,22,9,26,0.35,7,Rain,331
2013-9-27,37,35,32,35,33,31,100,95,89,30.03,29.96,29.90,10,4,0,21,6,24,0.74,8,Fog-Snow,325
2013-9-28,62,49,35,40,34,29,89,63,36,30.02,29.96,29.88,10,10,10,24,17,29,0.00,0,,227
2013-9-29,68,59,49,38,36,35,66,49,32,29.85,29.70,29.60,10,10,10,35,20,40,0.00,0,,232
2013-9-30,77,58,38,47,38,35,86,56,25,29.85,29.63,29.46,10,10,10,37,15,46,0.00,0,,238